Portada
METAR-TAF:

METAR-TAF

Aeropuertos :

Beirut, Líbano

latitud: 33-49N, longitud: 035-29E, altitud: 29 m

Observación

El informe se hizo hace 57 minutos, a las 12:00 UTC
Viento 9 kt del norte
Temperatura 20°C
Humedad 49%
Presión 1017 hPa
Visibilidad: 8000 m

METAR: OLBA 271200Z 35009KT 8000 NSC 20/09 Q1017 NOSIG

Hora: 14:57 (12:57 UTC)

Pronóstico

El informe se hizo hace 2 horas y 57 minutos, a las 10:00 UTC
Pronóstico válido del 27 a las 12 UTC al 28 a las 18 UTC
Viento 15 kt del norte
Visibilidad 10 km o más
Evolucionando progresivamente
del 28 a las 03 UTC al 28 a las 06 UTC
Viento 5 kt del norte
Nubes dispersas a una altura de 2600 ft
Evolucionando progresivamente
del 28 a las 06 UTC al 28 a las 09 UTC
Viento 2 kt con dirección variable
Evolucionando progresivamente
del 28 a las 15 UTC al 28 a las 18 UTC
Viento 10 kt del sur-suroeste

TAF: OLBA 271000Z 2712/2818 01015KT 9999 NSC BECMG 2803/2806 01005KT SCT026 BECMG 2806/2809 VRB02KT BECMG 2815/2818 21010KT

Observaciones y pronósticos meteorológicos de más de 4000 aeropuertos (mensajes METAR y TAF).

Los puntos amarillos y rojos representan las estaciones disponibles.

Ponga el ratón en el punto deseado para ver el nombre de la estación.

Haga clic para ver las observaciones y los pronósticos meteorológicos.

Para cambiar el mapa : haga clic en los botones verdes con una cruz de color negro para hacer un zoom, en el botón verde con un guión para alejar o en las flechas verdes para mapas adyacentes.


METAR-TAF: